Big Bend Natl Park, TX (79834)

4:39 AM CST on December 07, 2016 (GMT -0600)
Big Bend - Chisos View | | Change Station
Active Advisory: Freeze Watch

Elev 3497 ft 29.47 °N, 103.38 °W | Updated 4 minutes ago

Clear
Clear
40.0 °F
Feels Like 40 °F
N
0.0
Wind Variable Wind from WNW
Gusts 0.0 mph

Today
High -- | Low -- °F
--% Chance of Precip.
Yesterday
High -- | Low -- °F
Precip. -- in
Pressure 29.96 in
Visibility 10.0 miles
Clouds Clear
Windchill 40 °F
Dew Point 37 °F
Humidity 89%
Rainfall 0.00 in
Snow Depth Not available.
7:34 AM 5:54 PM
Waxing Crescent, 51% visible
METAR KPRS 071015Z AUTO 31004KT 10SM CLR 09/04 A2996 RMK AO2 T00870043
Pressure 29.96 in
Visibility 10.0 miles
Clouds Clear
Windchill 40 °F
Dew Point 37 °F
Humidity 89%
Rainfall 0.00 in
Snow Depth Not available.
7:34 AM 5:54 PM
Waxing Crescent, 51% visible
METAR KPRS 071015Z AUTO 31004KT 10SM CLR 09/04 A2996 RMK AO2 T00870043

10-Day Weather Forecast

Almanac

Astronomy

Dec. 07, 2016 Rise Set
Actual Time
Civil Twilight
Nautical Twilight
Astronomical Twilight
Moon
Length of Visible Light
Length of Day
Tomorrow will be .
, % of the Moon is Illuminated

Today's Extremes

State Highs State Lows

Community

WunderPhotos

Upload Photos

1,956,111 photos uploaded!

WunderBlog® & News

Nearby

Air Quality

  Air Quality AQ Index Pollutant
Not available.

Snow Depth

Station Depth Elevation

Earthquake Activity

City Distance Mag. Time & Date
Minimum magnitude displayed is 2.5.

Coastal Water Temperatures

Place Temperature

Stations

Nearby Weather Stations

Station Location Temp. Windchill Dew Point Humidity Wind Precip. Elev Updated Type
                   

Watches & Warnings

Freeze Watch
Issued: 4:11 AM CST Dec. 7, 2016 – National Weather Service

... Freeze watch in effect from Thursday evening through Friday
morning...

* temperature... 24 to 32 degrees.

* Impacts... those with cold-sensitive plants or animals... or
other concerns related to freezing temperatures... should
prepare now for this freeze. Make sure heaters are in proper
working order.

Precautionary/preparedness actions...

A freeze watch means sub-freezing temperatures are possible.
These conditions could kill crops and other sensitive vegetation.



Rhluchan